sensor_id;sensor_type;location;lat;lon;timestamp;pressure;altitude;pressure_sealevel;temperature;humidity
62791;BME280;48830;53.426;10.300;2022-10-16T00:02:08;100906.84;;;14.34;100.00
62791;BME280;48830;53.426;10.300;2022-10-16T00:04:33;100918.94;;;14.32;100.00
62791;BME280;48830;53.426;10.300;2022-10-16T00:06:59;100917.16;;;14.25;100.00
62791;BME280;48830;53.426;10.300;2022-10-16T00:09:24;100910.28;;;14.21;100.00
62791;BME280;48830;53.426;10.300;2022-10-16T00:11:50;100916.28;;;14.20;100.00
62791;BME280;48830;53.426;10.300;2022-10-16T00:14:15;100920.59;;;14.15;100.00
62791;BME280;48830;53.426;10.300;2022-10-16T00:16:41;100905.91;;;14.09;100.00
62791;BME280;48830;53.426;10.300;2022-10-16T00:19:07;100910.22;;;14.09;100.00
62791;BME280;48830;53.426;10.300;2022-10-16T00:21:33;100915.41;;;14.06;100.00
62791;BME280;48830;53.426;10.300;2022-10-16T00:24:05;100930.91;;;14.03;100.00
62791;BME280;48830;53.426;10.300;2022-10-16T00:26:32;100919.69;;;14.01;100.00
62791;BME280;48830;53.426;10.300;2022-10-16T00:28:59;100916.22;;;13.99;100.00
62791;BME280;48830;53.426;10.300;2022-10-16T00:31:24;100925.69;;;13.92;100.00
62791;BME280;48830;53.426;10.300;2022-10-16T00:33:50;100925.69;;;13.89;100.00
62791;BME280;48830;53.426;10.300;2022-10-16T00:36:18;100927.41;;;13.91;100.00
62791;BME280;48830;53.426;10.300;2022-10-16T00:38:44;100930.00;;;13.90;100.00
62791;BME280;48830;53.426;10.300;2022-10-16T00:41:16;100939.44;;;13.82;100.00
62791;BME280;48830;53.426;10.300;2022-10-16T00:43:45;100938.56;;;13.78;100.00
62791;BME280;48830;53.426;10.300;2022-10-16T00:46:38;100941.13;;;13.77;100.00
62791;BME280;48830;53.426;10.300;2022-10-16T00:49:11;100942.84;;;13.76;100.00
62791;BME280;48830;53.426;10.300;2022-10-16T00:51:43;100932.50;;;13.73;100.00
62791;BME280;48830;53.426;10.300;2022-10-16T00:54:13;100933.34;;;13.69;100.00
62791;BME280;48830;53.426;10.300;2022-10-16T00:56:40;100942.78;;;13.64;100.00
62791;BME280;48830;53.426;10.300;2022-10-16T00:59:14;100941.94;;;13.65;100.00
62791;BME280;48830;53.426;10.300;2022-10-16T01:01:40;100944.50;;;13.62;100.00
62791;BME280;48830;53.426;10.300;2022-10-16T01:04:05;100941.94;;;13.66;100.00
62791;BME280;48830;53.426;10.300;2022-10-16T01:06:51;100940.19;;;13.58;100.00
62791;BME280;48830;53.426;10.300;2022-10-16T01:09:29;100941.03;;;13.57;100.00
62791;BME280;48830;53.426;10.300;2022-10-16T01:12:23;100943.56;;;13.49;100.00
62791;BME280;48830;53.426;10.300;2022-10-16T01:14:57;100940.13;;;13.50;100.00
62791;BME280;48830;53.426;10.300;2022-10-16T01:26:08;100956.41;;;13.38;100.00
62791;BME280;48830;53.426;10.300;2022-10-16T01:29:03;100956.38;;;13.34;100.00
62791;BME280;48830;53.426;10.300;2022-10-16T01:31:34;100962.34;;;13.28;100.00
62791;BME280;48830;53.426;10.300;2022-10-16T01:34:15;100970.97;;;13.29;100.00
62791;BME280;48830;53.426;10.300;2022-10-16T01:36:46;100963.25;;;13.30;100.00
62791;BME280;48830;53.426;10.300;2022-10-16T01:39:14;100964.94;;;13.25;100.00
62791;BME280;48830;53.426;10.300;2022-10-16T01:41:46;100966.59;;;13.20;100.00
62791;BME280;48830;53.426;10.300;2022-10-16T01:44:17;100967.44;;;13.21;100.00
62791;BME280;48830;53.426;10.300;2022-10-16T01:46:46;100973.44;;;13.18;100.00
62791;BME280;48830;53.426;10.300;2022-10-16T01:49:14;100973.44;;;13.18;100.00
62791;BME280;48830;53.426;10.300;2022-10-16T01:51:40;100970.00;;;13.16;100.00
62791;BME280;48830;53.426;10.300;2022-10-16T01:54:09;100969.13;;;13.16;100.00
62791;BME280;48830;53.426;10.300;2022-10-16T01:56:36;100974.28;;;13.14;100.00
62791;BME280;48830;53.426;10.300;2022-10-16T01:59:15;100974.25;;;13.11;100.00
62791;BME280;48830;53.426;10.300;2022-10-16T02:01:50;100974.22;;;13.06;100.00
62791;BME280;48830;53.426;10.300;2022-10-16T02:06:52;100974.25;;;13.08;100.00
62791;BME280;48830;53.426;10.300;2022-10-16T02:09:18;100972.44;;;12.99;100.00
62791;BME280;48830;53.426;10.300;2022-10-16T02:11:44;100978.50;;;13.03;100.00
62791;BME280;48830;53.426;10.300;2022-10-16T02:14:10;100980.22;;;13.04;100.00
62791;BME280;48830;53.426;10.300;2022-10-16T02:16:44;100977.66;;;13.04;100.00
62791;BME280;48830;53.426;10.300;2022-10-16T02:19:12;100978.47;;;13.00;100.00
62791;BME280;48830;53.426;10.300;2022-10-16T02:21:46;100974.16;;;12.99;100.00
62791;BME280;48830;53.426;10.300;2022-10-16T02:29:58;100968.94;;;12.93;100.00
62791;BME280;48830;53.426;10.300;2022-10-16T02:32:29;100969.81;;;12.95;100.00
62791;BME280;48830;53.426;10.300;2022-10-16T02:34:57;100977.50;;;12.90;100.00
62791;BME280;48830;53.426;10.300;2022-10-16T02:37:24;100979.22;;;12.90;100.00
62791;BME280;48830;53.426;10.300;2022-10-16T02:39:50;100974.94;;;12.88;100.00
62791;BME280;48830;53.426;10.300;2022-10-16T02:42:17;100980.03;;;12.84;100.00
62791;BME280;48830;53.426;10.300;2022-10-16T02:44:43;100981.75;;;12.85;100.00
62791;BME280;48830;53.426;10.300;2022-10-16T02:47:08;100974.88;;;12.85;100.00
62791;BME280;48830;53.426;10.300;2022-10-16T02:49:34;100982.63;;;12.81;100.00
62791;BME280;48830;53.426;10.300;2022-10-16T02:51:59;100979.13;;;12.80;100.00
62791;BME280;48830;53.426;10.300;2022-10-16T02:54:24;100980.00;;;12.79;100.00
62791;BME280;48830;53.426;10.300;2022-10-16T02:56:50;100971.44;;;12.83;100.00
62791;BME280;48830;53.426;10.300;2022-10-16T02:59:15;100974.84;;;12.79;100.00
62791;BME280;48830;53.426;10.300;2022-10-16T03:01:41;100975.69;;;12.77;100.00
62791;BME280;48830;53.426;10.300;2022-10-16T03:04:06;100980.84;;;12.77;100.00
62791;BME280;48830;53.426;10.300;2022-10-16T03:06:32;100985.00;;;12.64;100.00
62791;BME280;48830;53.426;10.300;2022-10-16T03:08:57;100981.63;;;12.70;100.00
62791;BME280;48830;53.426;10.300;2022-10-16T03:11:23;100970.38;;;12.63;100.00
62791;BME280;48830;53.426;10.300;2022-10-16T03:13:48;100969.50;;;12.61;100.00
62791;BME280;48830;53.426;10.300;2022-10-16T03:16:13;100972.91;;;12.57;100.00
62791;BME280;48830;53.426;10.300;2022-10-16T03:18:39;100969.47;;;12.58;100.00
62791;BME280;48830;53.426;10.300;2022-10-16T03:21:04;100966.03;;;12.59;100.00
62791;BME280;48830;53.426;10.300;2022-10-16T03:23:30;100969.41;;;12.53;100.00
62791;BME280;48830;53.426;10.300;2022-10-16T03:25:55;100967.69;;;12.51;100.00
62791;BME280;48830;53.426;10.300;2022-10-16T03:28:20;100970.22;;;12.45;100.00
62791;BME280;48830;53.426;10.300;2022-10-16T03:30:46;100972.78;;;12.45;100.00
62791;BME280;48830;53.426;10.300;2022-10-16T03:33:11;100978.81;;;12.44;100.00
62791;BME280;48830;53.426;10.300;2022-10-16T03:35:37;100974.47;;;12.43;100.00
62791;BME280;48830;53.426;10.300;2022-10-16T03:38:02;100973.59;;;12.41;100.00
62791;BME280;48830;53.426;10.300;2022-10-16T03:40:28;100968.44;;;12.42;100.00
62791;BME280;48830;53.426;10.300;2022-10-16T03:42:53;100976.13;;;12.38;100.00
62791;BME280;48830;53.426;10.300;2022-10-16T03:45:23;100977.84;;;12.37;100.00
62791;BME280;48830;53.426;10.300;2022-10-16T03:47:48;100981.28;;;12.34;100.00
62791;BME280;48830;53.426;10.300;2022-10-16T03:50:14;100988.16;;;12.35;100.00
62791;BME280;48830;53.426;10.300;2022-10-16T03:52:40;100988.94;;;12.31;100.00
62791;BME280;48830;53.426;10.300;2022-10-16T03:55:06;100983.78;;;12.30;100.00
62791;BME280;48830;53.426;10.300;2022-10-16T03:57:32;100986.31;;;12.25;100.00
62791;BME280;48830;53.426;10.300;2022-10-16T03:59:57;100986.28;;;12.22;100.00
62791;BME280;48830;53.426;10.300;2022-10-16T04:02:22;100991.41;;;12.19;100.00
62791;BME280;48830;53.426;10.300;2022-10-16T04:04:48;100981.09;;;12.19;100.00
62791;BME280;48830;53.426;10.300;2022-10-16T04:07:13;100993.09;;;12.17;100.00
62791;BME280;48830;53.426;10.300;2022-10-16T04:09:39;100990.53;;;12.17;100.00
62791;BME280;48830;53.426;10.300;2022-10-16T04:12:04;100993.94;;;12.16;100.00
62791;BME280;48830;53.426;10.300;2022-10-16T04:14:30;101006.78;;;12.12;100.00
62791;BME280;48830;53.426;10.300;2022-10-16T04:16:55;101010.16;;;12.09;100.00
62791;BME280;48830;53.426;10.300;2022-10-16T04:19:21;101010.94;;;12.03;100.00
62791;BME280;48830;53.426;10.300;2022-10-16T04:21:46;101014.44;;;12.05;100.00
62791;BME280;48830;53.426;10.300;2022-10-16T04:24:11;101016.13;;;12.05;100.00
62791;BME280;48830;53.426;10.300;2022-10-16T04:26:37;101030.69;;;12.03;100.00
62791;BME280;48830;53.426;10.300;2022-10-16T04:29:02;101029.00;;;12.05;100.00
62791;BME280;48830;53.426;10.300;2022-10-16T04:31:28;101022.97;;;12.04;100.00
62791;BME280;48830;53.426;10.300;2022-10-16T04:33:53;101024.69;;;12.04;100.00
62791;BME280;48830;53.426;10.300;2022-10-16T04:36:19;101031.56;;;12.02;100.00
62791;BME280;48830;53.426;10.300;2022-10-16T04:38:44;101031.56;;;12.02;100.00
62791;BME280;48830;53.426;10.300;2022-10-16T04:41:10;101038.34;;;11.97;100.00
62791;BME280;48830;53.426;10.300;2022-10-16T04:43:35;101043.44;;;11.94;100.00
62791;BME280;48830;53.426;10.300;2022-10-16T04:46:00;101040.94;;;11.97;100.00
62791;BME280;48830;53.426;10.300;2022-10-16T04:48:27;101052.03;;;11.93;100.00
62791;BME280;48830;53.426;10.300;2022-10-16T04:50:52;101043.38;;;11.88;100.00
62791;BME280;48830;53.426;10.300;2022-10-16T04:53:18;101051.09;;;11.88;100.00
62791;BME280;48830;53.426;10.300;2022-10-16T04:55:43;101052.81;;;11.89;100.00
62791;BME280;48830;53.426;10.300;2022-10-16T04:58:09;101050.25;;;11.89;100.00
62791;BME280;48830;53.426;10.300;2022-10-16T05:00:35;101051.09;;;11.88;100.00
62791;BME280;48830;53.426;10.300;2022-10-16T05:03:00;101049.38;;;11.87;100.00
62791;BME280;48830;53.426;10.300;2022-10-16T05:05:27;101046.00;;;11.91;100.00
62791;BME280;48830;53.426;10.300;2022-10-16T05:07:53;101049.44;;;11.90;100.00
62791;BME280;48830;53.426;10.300;2022-10-16T05:10:19;101052.81;;;11.86;100.00
62791;BME280;48830;53.426;10.300;2022-10-16T05:12:46;101056.31;;;11.91;100.00
62791;BME280;48830;53.426;10.300;2022-10-16T05:15:11;101064.81;;;11.87;100.00
62791;BME280;48830;53.426;10.300;2022-10-16T05:17:37;101069.91;;;11.83;100.00
62791;BME280;48830;53.426;10.300;2022-10-16T05:20:02;101064.78;;;11.83;100.00
62791;BME280;48830;53.426;10.300;2022-10-16T05:22:28;101059.56;;;11.80;100.00
62791;BME280;48830;53.426;10.300;2022-10-16T05:24:54;101069.84;;;11.79;100.00
62791;BME280;48830;53.426;10.300;2022-10-16T05:27:19;101071.56;;;11.78;100.00
62791;BME280;48830;53.426;10.300;2022-10-16T05:29:46;101069.78;;;11.74;100.00
62791;BME280;48830;53.426;10.300;2022-10-16T05:32:13;101071.50;;;11.75;100.00
62791;BME280;48830;53.426;10.300;2022-10-16T05:34:38;101070.66;;;11.76;100.00
62791;BME280;48830;53.426;10.300;2022-10-16T05:37:04;101077.44;;;11.73;100.00
62791;BME280;48830;53.426;10.300;2022-10-16T05:39:29;101085.13;;;11.68;100.00
62791;BME280;48830;53.426;10.300;2022-10-16T05:41:55;101078.28;;;11.69;100.00
62791;BME280;48830;53.426;10.300;2022-10-16T05:44:20;101086.84;;;11.69;100.00
62791;BME280;48830;53.426;10.300;2022-10-16T05:46:46;101080.00;;;11.70;100.00
62791;BME280;48830;53.426;10.300;2022-10-16T05:49:12;101070.56;;;11.69;100.00
62791;BME280;48830;53.426;10.300;2022-10-16T05:51:37;101075.66;;;11.67;100.00
62791;BME280;48830;53.426;10.300;2022-10-16T05:54:02;101081.72;;;11.69;100.00
62791;BME280;48830;53.426;10.300;2022-10-16T05:56:28;101077.38;;;11.67;100.00
62791;BME280;48830;53.426;10.300;2022-10-16T05:58:53;101078.28;;;11.70;100.00
62791;BME280;48830;53.426;10.300;2022-10-16T06:01:19;101085.16;;;11.71;100.00
62791;BME280;48830;53.426;10.300;2022-10-16T06:03:46;101092.94;;;11.74;100.00
62791;BME280;48830;53.426;10.300;2022-10-16T06:06:14;101091.22;;;11.73;100.00
62791;BME280;48830;53.426;10.300;2022-10-16T06:08:41;101095.53;;;11.74;100.00
62791;BME280;48830;53.426;10.300;2022-10-16T06:11:10;101092.09;;;11.75;100.00
62791;BME280;48830;53.426;10.300;2022-10-16T06:13:36;101097.31;;;11.78;100.00
62791;BME280;48830;53.426;10.300;2022-10-16T06:16:03;101100.69;;;11.74;100.00
62791;BME280;48830;53.426;10.300;2022-10-16T06:18:29;101092.91;;;11.73;100.00
62791;BME280;48830;53.426;10.300;2022-10-16T06:20:55;101092.91;;;11.73;100.00
62791;BME280;48830;53.426;10.300;2022-10-16T06:23:21;101098.94;;;11.73;100.00
62791;BME280;48830;53.426;10.300;2022-10-16T06:25:47;101097.25;;;11.74;100.00
62791;BME280;48830;53.426;10.300;2022-10-16T06:28:16;101104.97;;;11.75;100.00
62791;BME280;48830;53.426;10.300;2022-10-16T06:30:42;101105.84;;;11.77;100.00
62791;BME280;48830;53.426;10.300;2022-10-16T06:33:10;101109.34;;;11.81;100.00
62791;BME280;48830;53.426;10.300;2022-10-16T06:35:35;101111.06;;;11.80;100.00
62791;BME280;48830;53.426;10.300;2022-10-16T06:38:01;101120.56;;;11.83;100.00
62791;BME280;48830;53.426;10.300;2022-10-16T06:40:26;101117.19;;;11.84;100.00
62791;BME280;48830;53.426;10.300;2022-10-16T06:42:55;101121.44;;;11.83;100.00
62791;BME280;48830;53.426;10.300;2022-10-16T06:45:20;101115.41;;;11.83;100.00
62791;BME280;48830;53.426;10.300;2022-10-16T06:47:45;101124.91;;;11.84;100.00
62791;BME280;48830;53.426;10.300;2022-10-16T06:50:11;101131.81;;;11.87;100.00
62791;BME280;48830;53.426;10.300;2022-10-16T06:52:36;101137.00;;;11.90;100.00
62791;BME280;48830;53.426;10.300;2022-10-16T06:55:02;101139.63;;;11.93;100.00
62791;BME280;48830;53.426;10.300;2022-10-16T06:57:28;101142.25;;;11.96;100.00
62791;BME280;48830;53.426;10.300;2022-10-16T06:59:54;101152.69;;;12.05;100.00
62791;BME280;48830;53.426;10.300;2022-10-16T07:02:19;101151.88;;;12.09;100.00
62791;BME280;48830;53.426;10.300;2022-10-16T07:04:44;101154.56;;;12.15;100.00
62791;BME280;48830;53.426;10.300;2022-10-16T07:07:10;101142.78;;;12.32;100.00
62791;BME280;48830;53.426;10.300;2022-10-16T07:09:35;101157.66;;;12.52;100.00
62791;BME280;48830;53.426;10.300;2022-10-16T07:12:01;101155.22;;;12.64;100.00
62791;BME280;48830;53.426;10.300;2022-10-16T07:14:26;101157.91;;;12.72;100.00
62791;BME280;48830;53.426;10.300;2022-10-16T07:16:52;101161.44;;;12.80;100.00
62791;BME280;48830;53.426;10.300;2022-10-16T07:19:17;101169.38;;;12.95;100.00
62791;BME280;48830;53.426;10.300;2022-10-16T07:21:43;101166.03;;;13.07;100.00
62791;BME280;48830;53.426;10.300;2022-10-16T07:24:14;101172.19;;;13.18;100.00
62791;BME280;48830;53.426;10.300;2022-10-16T07:26:41;101188.72;;;13.29;100.00
62791;BME280;48830;53.426;10.300;2022-10-16T07:29:11;101185.25;;;13.27;100.00
62791;BME280;48830;53.426;10.300;2022-10-16T07:31:38;101185.28;;;13.33;100.00
62791;BME280;48830;53.426;10.300;2022-10-16T07:34:03;101189.59;;;13.31;100.00
62791;BME280;48830;53.426;10.300;2022-10-16T07:36:29;101200.84;;;13.39;100.00
62791;BME280;48830;53.426;10.300;2022-10-16T07:38:54;101199.41;;;13.66;100.00
62791;BME280;48830;53.426;10.300;2022-10-16T07:41:19;101201.13;;;13.65;100.00
62791;BME280;48830;53.426;10.300;2022-10-16T07:43:47;101209.81;;;13.75;100.00
62791;BME280;48830;53.426;10.300;2022-10-16T07:46:13;101220.38;;;14.00;100.00
62791;BME280;48830;53.426;10.300;2022-10-16T07:48:39;101218.75;;;14.11;100.00
62791;BME280;48830;53.426;10.300;2022-10-16T07:51:06;101217.97;;;14.23;100.00
62791;BME280;48830;53.426;10.300;2022-10-16T07:53:32;101223.38;;;14.58;100.00
62791;BME280;48830;53.426;10.300;2022-10-16T07:56:03;101226.09;;;14.78;100.00
62791;BME280;48830;53.426;10.300;2022-10-16T07:58:30;101225.31;;;14.94;100.00
62791;BME280;48830;53.426;10.300;2022-10-16T08:00:56;101224.53;;;15.15;100.00
62791;BME280;48830;53.426;10.300;2022-10-16T08:03:22;101226.28;;;15.19;100.00
62791;BME280;48830;53.426;10.300;2022-10-16T08:05:47;101225.47;;;15.49;99.75
62791;BME280;48830;53.426;10.300;2022-10-16T08:08:13;101228.13;;;15.77;96.70
62791;BME280;48830;53.426;10.300;2022-10-16T08:10:39;101226.44;;;16.01;95.64
62791;BME280;48830;53.426;10.300;2022-10-16T08:13:05;101233.34;;;16.12;95.08
62791;BME280;48830;53.426;10.300;2022-10-16T08:15:30;101235.94;;;16.09;93.83
62791;BME280;48830;53.426;10.300;2022-10-16T08:18:00;101236.81;;;15.97;94.83
62791;BME280;48830;53.426;10.300;2022-10-16T08:20:28;101237.66;;;15.78;96.19
62791;BME280;48830;53.426;10.300;2022-10-16T08:22:54;101243.63;;;15.60;96.54
62791;BME280;48830;53.426;10.300;2022-10-16T08:25:21;101245.41;;;15.64;97.13
62791;BME280;48830;53.426;10.300;2022-10-16T08:27:47;101254.03;;;15.64;96.72
62791;BME280;48830;53.426;10.300;2022-10-16T08:30:13;101259.28;;;15.89;95.42
62791;BME280;48830;53.426;10.300;2022-10-16T08:32:39;101259.28;;;15.84;95.16
62791;BME280;48830;53.426;10.300;2022-10-16T08:35:06;101259.31;;;16.15;93.75
62791;BME280;48830;53.426;10.300;2022-10-16T08:37:32;101260.16;;;16.23;93.56
62791;BME280;48830;53.426;10.300;2022-10-16T08:39:58;101261.00;;;16.37;93.40
62791;BME280;48830;53.426;10.300;2022-10-16T08:42:41;101257.53;;;16.53;92.44
62791;BME280;48830;53.426;10.300;2022-10-16T08:48:45;101254.78;;;17.15;88.21
62791;BME280;48830;53.426;10.300;2022-10-16T08:51:35;101251.16;;;17.46;87.99
62791;BME280;48830;53.426;10.300;2022-10-16T08:54:03;101264.06;;;17.58;87.14
62791;BME280;48830;53.426;10.300;2022-10-16T08:56:29;101268.34;;;17.76;85.38
62791;BME280;48830;53.426;10.300;2022-10-16T08:58:57;101268.59;;;17.24;86.59
62791;BME280;48830;53.426;10.300;2022-10-16T09:01:32;101269.28;;;17.57;86.56
62791;BME280;48830;53.426;10.300;2022-10-16T09:15:31;101260.16;;;25.81;54.85
62791;BME280;48830;53.426;10.300;2022-10-16T09:18:37;101292.88;;;24.81;54.58
62791;BME280;48830;53.426;10.300;2022-10-16T09:21:31;101279.31;;;25.17;54.65
62791;BME280;48830;53.426;10.300;2022-10-16T09:24:09;101275.28;;;25.98;52.30
62791;BME280;48830;53.426;10.300;2022-10-16T09:26:36;101279.91;;;26.55;51.01
62791;BME280;48830;53.426;10.300;2022-10-16T09:29:02;101283.28;;;25.74;52.54
62791;BME280;48830;53.426;10.300;2022-10-16T09:31:28;101280.75;;;27.15;50.15
62791;BME280;48830;53.426;10.300;2022-10-16T09:33:58;101280.16;;;27.65;48.64
62791;BME280;48830;53.426;10.300;2022-10-16T09:36:26;101284.47;;;29.07;46.53
62791;BME280;48830;53.426;10.300;2022-10-16T09:39:07;101293.47;;;27.45;48.54
62791;BME280;48830;53.426;10.300;2022-10-16T09:41:39;101298.97;;;27.95;47.34
62791;BME280;48830;53.426;10.300;2022-10-16T09:46:45;101304.78;;;28.21;46.55
62791;BME280;48830;53.426;10.300;2022-10-16T09:49:25;101305.84;;;28.17;46.25
62791;BME280;48830;53.426;10.300;2022-10-16T09:52:12;101315.81;;;26.58;47.09
62791;BME280;48830;53.426;10.300;2022-10-16T09:54:49;101318.34;;;27.58;46.01
62791;BME280;48830;53.426;10.300;2022-10-16T09:57:15;101319.47;;;28.96;44.08
62791;BME280;48830;53.426;10.300;2022-10-16T09:59:54;101303.19;;;27.99;45.10
62791;BME280;48830;53.426;10.300;2022-10-16T10:02:29;101310.44;;;29.16;43.55
62791;BME280;48830;53.426;10.300;2022-10-16T10:04:55;101316.97;;;27.87;45.78
62791;BME280;48830;53.426;10.300;2022-10-16T10:07:26;101313.13;;;29.79;43.19
62791;BME280;48830;53.426;10.300;2022-10-16T10:09:53;101304.19;;;31.15;40.96
62791;BME280;48830;53.426;10.300;2022-10-16T10:12:23;101319.56;;;30.95;40.73
62791;BME280;48830;53.426;10.300;2022-10-16T10:14:51;101306.81;;;30.27;40.99
62791;BME280;48830;53.426;10.300;2022-10-16T10:17:22;101323.13;;;31.51;39.70
62791;BME280;48830;53.426;10.300;2022-10-16T10:22:30;101322.13;;;32.60;38.37
62791;BME280;48830;53.426;10.300;2022-10-16T10:24:59;101326.31;;;32.90;37.65
62791;BME280;48830;53.426;10.300;2022-10-16T10:27:32;101337.03;;;31.28;39.67
62791;BME280;48830;53.426;10.300;2022-10-16T10:30:56;101323.03;;;31.80;37.73
62791;BME280;48830;53.426;10.300;2022-10-16T10:33:18;101329.81;;;31.01;39.38
62791;BME280;48830;53.426;10.300;2022-10-16T10:50:07;101339.28;;;32.82;35.15
62791;BME280;48830;53.426;10.300;2022-10-16T10:52:48;101337.22;;;30.22;39.71
62791;BME280;48830;53.426;10.300;2022-10-16T10:58:26;101354.22;;;30.02;39.90
62791;BME280;48830;53.426;10.300;2022-10-16T11:01:13;101372.97;;;27.58;42.91
62791;BME280;48830;53.426;10.300;2022-10-16T11:06:48;101364.69;;;29.58;40.02
62791;BME280;48830;53.426;10.300;2022-10-16T11:09:20;101355.78;;;24.87;47.93
62791;BME280;48830;53.426;10.300;2022-10-16T11:11:56;101371.31;;;24.14;48.96
62791;BME280;48830;53.426;10.300;2022-10-16T11:14:34;101361.03;;;29.76;39.56
62791;BME280;48830;53.426;10.300;2022-10-16T11:17:06;101354.03;;;30.37;39.23
62791;BME280;48830;53.426;10.300;2022-10-16T11:19:39;101368.66;;;29.33;40.36
62791;BME280;48830;53.426;10.300;2022-10-16T11:24:55;101365.31;;;33.16;35.36
62791;BME280;48830;53.426;10.300;2022-10-16T11:27:33;101365.19;;;33.18;36.24
62791;BME280;48830;53.426;10.300;2022-10-16T11:30:04;101360.00;;;33.66;33.81
62791;BME280;48830;53.426;10.300;2022-10-16T11:32:50;101359.78;;;32.94;35.22
62791;BME280;48830;53.426;10.300;2022-10-16T11:35:23;101363.72;;;33.01;35.77
62791;BME280;48830;53.426;10.300;2022-10-16T11:37:51;101371.28;;;33.07;35.35
62791;BME280;48830;53.426;10.300;2022-10-16T11:40:28;101374.84;;;32.01;37.93
62791;BME280;48830;53.426;10.300;2022-10-16T11:42:58;101377.59;;;28.45;40.10
62791;BME280;48830;53.426;10.300;2022-10-16T11:45:41;101379.78;;;25.02;46.39
62791;BME280;48830;53.426;10.300;2022-10-16T11:48:33;101371.03;;;29.71;40.45
62791;BME280;48830;53.426;10.300;2022-10-16T11:53:57;101388.31;;;26.69;45.27
62791;BME280;48830;53.426;10.300;2022-10-16T11:56:25;101390.72;;;26.54;45.32
62791;BME280;48830;53.426;10.300;2022-10-16T12:09:23;101411.38;;;24.22;48.36
62791;BME280;48830;53.426;10.300;2022-10-16T12:11:50;101403.19;;;25.11;45.97
62791;BME280;48830;53.426;10.300;2022-10-16T12:16:51;101414.78;;;23.36;51.41
62791;BME280;48830;53.426;10.300;2022-10-16T12:19:18;101407.03;;;26.84;45.52
62791;BME280;48830;53.426;10.300;2022-10-16T12:21:44;101421.19;;;22.93;51.99
62791;BME280;48830;53.426;10.300;2022-10-16T12:24:26;101418.28;;;26.01;46.24
62791;BME280;48830;53.426;10.300;2022-10-16T12:26:53;101423.13;;;26.12;45.33
62791;BME280;48830;53.426;10.300;2022-10-16T12:29:38;101428.91;;;24.22;49.07
62791;BME280;48830;53.426;10.300;2022-10-16T12:32:23;101423.25;;;26.95;44.83
62791;BME280;48830;53.426;10.300;2022-10-16T12:34:50;101422.91;;;26.62;44.46
62791;BME280;48830;53.426;10.300;2022-10-16T12:37:36;101431.78;;;27.02;44.23
62791;BME280;48830;53.426;10.300;2022-10-16T12:40:28;101422.63;;;26.68;45.74
62791;BME280;48830;53.426;10.300;2022-10-16T12:42:54;101431.63;;;24.73;49.78
62791;BME280;48830;53.426;10.300;2022-10-16T12:45:31;101437.69;;;27.29;44.76
62791;BME280;48830;53.426;10.300;2022-10-16T12:47:59;101430.91;;;28.00;43.44
62791;BME280;48830;53.426;10.300;2022-10-16T12:50:37;101446.09;;;24.60;48.76
62791;BME280;48830;53.426;10.300;2022-10-16T12:53:17;101445.88;;;23.49;51.79
62791;BME280;48830;53.426;10.300;2022-10-16T12:58:42;101436.13;;;26.82;44.00
62791;BME280;48830;53.426;10.300;2022-10-16T13:01:23;101434.78;;;28.29;42.00
62791;BME280;48830;53.426;10.300;2022-10-16T13:04:22;101456.19;;;27.27;41.92
62791;BME280;48830;53.426;10.300;2022-10-16T13:09:53;101450.19;;;29.77;38.14
62791;BME280;48830;53.426;10.300;2022-10-16T13:17:41;101468.50;;;29.31;38.11
62791;BME280;48830;53.426;10.300;2022-10-16T13:20:20;101480.81;;;24.70;45.15
62791;BME280;48830;53.426;10.300;2022-10-16T13:26:08;101491.25;;;22.47;51.84
62791;BME280;48830;53.426;10.300;2022-10-16T13:28:38;101492.44;;;24.05;47.45
62791;BME280;48830;53.426;10.300;2022-10-16T13:31:05;101496.66;;;21.98;53.51
62791;BME280;48830;53.426;10.300;2022-10-16T13:33:36;101493.47;;;25.38;47.24
62791;BME280;48830;53.426;10.300;2022-10-16T13:36:03;101500.50;;;25.37;46.49
62791;BME280;48830;53.426;10.300;2022-10-16T13:38:31;101514.44;;;23.37;50.44
62791;BME280;48830;53.426;10.300;2022-10-16T13:41:05;101500.09;;;24.97;47.26
62791;BME280;48830;53.426;10.300;2022-10-16T13:43:32;101499.06;;;22.86;52.55
62791;BME280;48830;53.426;10.300;2022-10-16T13:46:10;101506.41;;;21.91;55.34
62791;BME280;48830;53.426;10.300;2022-10-16T13:48:37;101512.78;;;21.30;57.64
62791;BME280;48830;53.426;10.300;2022-10-16T13:51:10;101522.06;;;21.48;58.21
62791;BME280;48830;53.426;10.300;2022-10-16T13:53:37;101516.53;;;22.89;54.44
62791;BME280;48830;53.426;10.300;2022-10-16T13:56:07;101521.78;;;22.48;55.02
62791;BME280;48830;53.426;10.300;2022-10-16T13:58:35;101522.53;;;22.92;54.31
62791;BME280;48830;53.426;10.300;2022-10-16T14:01:05;101522.78;;;22.43;54.79
62791;BME280;48830;53.426;10.300;2022-10-16T14:03:41;101535.06;;;22.41;55.17
62791;BME280;48830;53.426;10.300;2022-10-16T14:06:12;101530.88;;;23.44;52.34
62791;BME280;48830;53.426;10.300;2022-10-16T14:08:42;101535.75;;;22.89;54.45
62791;BME280;48830;53.426;10.300;2022-10-16T14:11:08;101543.13;;;24.40;50.48
62791;BME280;48830;53.426;10.300;2022-10-16T14:13:39;101528.59;;;25.37;48.55
62791;BME280;48830;53.426;10.300;2022-10-16T14:16:10;101534.94;;;25.56;47.34